createdAt,value
2019-01-26T00:00:54.024Z,396.97
2019-01-26T00:03:22.402Z,416.23
2019-01-26T00:05:50.872Z,457.70
2019-01-26T00:08:19.279Z,653.23
2019-01-26T00:10:47.657Z,578.17
2019-01-26T00:13:16.135Z,481.07
2019-01-26T00:15:44.583Z,571.77
2019-01-26T00:18:12.978Z,469.27
2019-01-26T00:20:44.597Z,517.93
2019-01-26T00:23:13.137Z,551.60
2019-01-26T00:25:41.547Z,351.33
2019-01-26T00:28:10.025Z,323.97
2019-01-26T00:30:38.450Z,303.27
2019-01-26T00:33:06.870Z,286.10
2019-01-26T00:35:35.287Z,273.07
2019-01-26T00:38:03.653Z,266.47
2019-01-26T00:40:32.029Z,248.00
2019-01-26T00:43:00.457Z,222.50
2019-01-26T00:45:28.895Z,207.13
2019-01-26T00:47:57.372Z,232.13
2019-01-26T00:50:26.041Z,270.43
2019-01-26T00:52:54.702Z,271.27
2019-01-26T00:55:23.335Z,319.03
2019-01-26T00:57:51.737Z,334.53
2019-01-26T01:00:25.859Z,302.47
2019-01-26T01:02:54.256Z,368.17
2019-01-26T01:05:22.683Z,324.80
2019-01-26T01:07:51.145Z,337.20
2019-01-26T01:10:20.047Z,387.80
2019-01-26T01:12:48.477Z,378.77
2019-01-26T01:15:21.900Z,419.53
2019-01-26T01:17:50.389Z,462.93
2019-01-26T01:20:18.943Z,493.10
2019-01-26T01:22:47.371Z,553.20
2019-01-26T01:25:15.777Z,508.57
2019-01-26T01:27:44.195Z,557.57
2019-01-26T01:30:15.857Z,467.77
2019-01-26T01:32:44.243Z,406.63
2019-01-26T01:35:12.697Z,359.90
2019-01-26T01:37:41.559Z,475.43
2019-01-26T01:40:11.866Z,467.57
2019-01-26T01:42:40.911Z,580.53
2019-01-26T01:45:12.952Z,677.40
2019-01-26T01:47:41.476Z,538.80
2019-01-26T01:50:10.334Z,409.50
2019-01-26T01:52:38.720Z,346.33
2019-01-26T01:55:09.229Z,305.50
2019-01-26T01:57:37.645Z,280.40
2019-01-26T02:00:12.045Z,289.70
2019-01-26T02:02:40.423Z,287.67
2019-01-26T02:05:08.901Z,286.00
2019-01-26T02:07:37.269Z,312.27
2019-01-26T02:10:08.483Z,336.43
2019-01-26T02:12:36.897Z,454.43
2019-01-26T02:15:07.368Z,506.47
2019-01-26T02:17:35.778Z,539.33
2019-01-26T02:20:07.664Z,473.73
2019-01-26T02:22:36.017Z,447.30
2019-01-26T02:25:05.053Z,564.57
2019-01-26T02:27:33.475Z,832.33
2019-01-26T02:30:01.963Z,812.30
2019-01-26T02:32:30.351Z,851.17
2019-01-26T02:34:58.765Z,668.77
2019-01-26T02:37:27.167Z,783.60
2019-01-26T02:39:55.583Z,662.80
2019-01-26T02:42:24.035Z,612.50
2019-01-26T02:44:52.449Z,606.13
2019-01-26T02:47:20.918Z,655.73
2019-01-26T02:49:49.336Z,435.53
2019-01-26T02:52:17.705Z,424.80
2019-01-26T02:54:46.195Z,338.13
2019-01-26T02:57:14.643Z,317.30
2019-01-26T02:59:43.119Z,301.23
2019-01-26T03:02:11.569Z,304.20
2019-01-26T03:04:40.050Z,285.40
2019-01-26T03:07:08.517Z,290.03
2019-01-26T03:09:36.972Z,277.50
2019-01-26T03:12:05.465Z,270.60
2019-01-26T03:14:33.903Z,246.10
2019-01-26T03:17:06.255Z,247.80
2019-01-26T03:19:32.503Z,262.10
2019-01-26T03:22:00.894Z,243.47
2019-01-26T03:24:29.275Z,231.73
2019-01-26T03:26:57.718Z,220.70
2019-01-26T03:29:26.104Z,233.20
2019-01-26T03:31:54.485Z,254.73
2019-01-26T03:34:24.954Z,277.77
2019-01-26T03:36:53.446Z,236.00
2019-01-26T03:39:21.903Z,261.87
2019-01-26T03:41:50.322Z,251.93
2019-01-26T03:44:18.722Z,215.07
2019-01-26T03:46:47.125Z,210.03
2019-01-26T03:49:15.525Z,226.33
2019-01-26T03:51:43.911Z,229.13
2019-01-26T03:54:12.292Z,224.60
2019-01-26T03:56:40.714Z,258.70
2019-01-26T03:59:09.108Z,231.03
2019-01-26T04:01:37.504Z,268.77
2019-01-26T04:04:05.920Z,268.40
2019-01-26T04:06:34.336Z,246.03
2019-01-26T04:09:02.725Z,249.47
2019-01-26T04:11:31.160Z,252.73
2019-01-26T04:13:59.622Z,263.17
2019-01-26T04:16:27.990Z,243.87
2019-01-26T04:18:56.405Z,236.90
2019-01-26T04:21:24.790Z,233.53
2019-01-26T04:23:53.187Z,235.63
2019-01-26T04:26:21.621Z,194.73
2019-01-26T04:28:50.104Z,213.43
2019-01-26T04:31:18.550Z,214.30
2019-01-26T04:34:05.516Z,220.77
2019-01-26T04:36:33.988Z,215.80
2019-01-26T04:39:02.426Z,234.10
2019-01-26T04:41:30.873Z,221.03
2019-01-26T04:43:59.365Z,223.90
2019-01-26T04:46:27.856Z,209.37
2019-01-26T04:48:56.269Z,203.47
2019-01-26T04:51:24.709Z,196.73
2019-01-26T04:53:53.278Z,201.17
2019-01-26T04:56:21.770Z,187.13
2019-01-26T04:58:50.178Z,180.80
2019-01-26T05:01:18.550Z,180.17
2019-01-26T05:03:47.035Z,186.87
2019-01-26T05:06:15.421Z,178.53
2019-01-26T05:08:43.806Z,181.50
2019-01-26T05:11:12.333Z,169.73
2019-01-26T05:13:40.704Z,172.47
2019-01-26T05:16:09.204Z,155.60
2019-01-26T05:18:37.638Z,154.27
2019-01-26T05:21:06.023Z,151.30
2019-01-26T05:23:34.621Z,145.87
2019-01-26T05:26:03.054Z,136.53
2019-01-26T05:28:31.485Z,136.07
2019-01-26T05:30:59.939Z,132.40
2019-01-26T05:33:28.437Z,113.93
2019-01-26T05:35:57.047Z,123.40
2019-01-26T05:38:25.454Z,119.83
2019-01-26T05:40:54.082Z,104.97
2019-01-26T05:43:22.491Z,102.63
2019-01-26T05:45:50.876Z,110.60
2019-01-26T05:48:19.301Z,93.23
2019-01-26T05:50:47.724Z,88.40
2019-01-26T05:53:16.182Z,94.93
2019-01-26T05:55:44.689Z,94.83
2019-01-26T05:58:13.094Z,82.87
2019-01-26T06:00:41.591Z,90.53
2019-01-26T06:03:10.028Z,92.17
2019-01-26T06:05:38.432Z,74.97
2019-01-26T06:08:06.804Z,69.57
2019-01-26T06:10:35.230Z,65.90
2019-01-26T06:13:03.641Z,69.03
2019-01-26T06:15:32.030Z,69.23
2019-01-26T06:18:00.433Z,78.23
2019-01-26T06:20:28.828Z,72.90
2019-01-26T06:22:57.260Z,79.33
2019-01-26T06:25:25.718Z,70.73
2019-01-26T06:27:54.160Z,65.03
2019-01-26T06:30:24.081Z,65.30
2019-01-26T06:32:52.484Z,63.77
2019-01-26T06:35:21.312Z,63.37
2019-01-26T06:37:49.693Z,72.37
2019-01-26T06:40:19.858Z,63.30
2019-01-26T06:42:48.358Z,66.57
2019-01-26T06:48:16.926Z,65.73
2019-01-26T06:50:45.306Z,63.87
2019-01-26T06:53:13.794Z,68.93
2019-01-26T06:55:42.129Z,58.90
2019-01-26T06:58:10.515Z,68.87
2019-01-26T07:00:38.926Z,65.53
2019-01-26T07:03:07.331Z,69.37
2019-01-26T07:05:46.045Z,73.37
2019-01-26T07:08:16.130Z,64.30
2019-01-26T07:10:44.476Z,59.43
2019-01-26T07:13:12.984Z,62.80
2019-01-26T07:15:41.565Z,65.60
2019-01-26T07:18:09.972Z,62.07
2019-01-26T07:20:38.450Z,60.10
2019-01-26T07:23:06.869Z,48.13
2019-01-26T07:25:35.305Z,52.98
2019-01-26T07:28:03.778Z,49.67
2019-01-26T07:30:32.316Z,51.73
2019-01-26T07:33:00.783Z,50.03
2019-01-26T07:35:30.330Z,44.77
2019-01-26T07:37:58.732Z,44.40
2019-01-26T07:40:27.199Z,55.00
2019-01-26T07:42:55.663Z,45.70
2019-01-26T07:45:25.934Z,49.00
2019-01-26T07:47:54.309Z,56.30
2019-01-26T07:50:25.605Z,63.97
2019-01-26T07:52:56.870Z,53.50
2019-01-26T07:55:25.314Z,60.47
2019-01-26T07:57:53.749Z,59.70
2019-01-26T08:00:29.045Z,57.00
2019-01-26T08:02:57.458Z,58.23
2019-01-26T08:05:27.595Z,55.73
2019-01-26T08:07:56.066Z,56.63
2019-01-26T08:10:26.625Z,65.83
2019-01-26T08:12:55.006Z,60.00
2019-01-26T08:15:26.273Z,72.67
2019-01-26T08:17:54.671Z,71.03
2019-01-26T08:20:23.335Z,77.13
2019-01-26T08:22:51.771Z,62.13
2019-01-26T08:25:20.142Z,73.40
2019-01-26T08:27:48.591Z,71.67
2019-01-26T08:30:24.273Z,68.17
2019-01-26T08:32:54.673Z,69.00
2019-01-26T08:35:22.804Z,54.53
2019-01-26T08:37:51.333Z,79.03
2019-01-26T08:40:21.483Z,76.07
2019-01-26T08:43:01.975Z,68.63
2019-01-26T08:45:30.305Z,67.97
2019-01-26T08:48:00.701Z,61.23
2019-01-26T08:50:29.219Z,67.83
2019-01-26T08:52:57.578Z,63.90
2019-01-26T08:55:26.030Z,55.83
2019-01-26T08:57:54.484Z,60.40
2019-01-26T09:00:25.130Z,61.47
2019-01-26T09:02:55.706Z,55.07
2019-01-26T09:05:34.733Z,46.77
2019-01-26T09:08:03.143Z,49.20
2019-01-26T09:10:31.590Z,53.17
2019-01-26T09:13:04.867Z,43.20
2019-01-26T09:15:33.283Z,45.70
2019-01-26T09:18:15.582Z,41.23
2019-01-26T09:20:44.074Z,31.27
2019-01-26T09:23:13.029Z,41.73
2019-01-26T09:25:41.595Z,39.67
2019-01-26T09:28:20.878Z,43.30
2019-01-26T09:30:51.059Z,37.27
2019-01-26T09:33:22.949Z,38.50
2019-01-26T09:35:51.670Z,36.00
2019-01-26T09:38:20.855Z,34.87
2019-01-26T09:40:49.595Z,31.40
2019-01-26T09:43:18.063Z,26.03
2019-01-26T09:45:46.839Z,36.23
2019-01-26T09:48:15.360Z,34.03
2019-01-26T09:50:43.879Z,24.43
2019-01-26T09:53:12.453Z,31.27
2019-01-26T09:55:40.834Z,32.07
2019-01-26T09:58:09.437Z,33.80
2019-01-26T10:00:38.055Z,41.23
2019-01-26T10:03:08.243Z,33.73
2019-01-26T10:05:36.667Z,31.93
2019-01-26T10:08:05.419Z,37.23
2019-01-26T10:10:33.967Z,47.67
2019-01-26T10:13:02.621Z,33.23
2019-01-26T10:15:48.983Z,45.10
2019-01-26T10:18:17.359Z,34.10
2019-01-26T10:20:49.102Z,41.80
2019-01-26T10:23:18.763Z,36.43
2019-01-26T10:25:48.679Z,36.20
2019-01-26T10:28:18.797Z,32.07
2019-01-26T10:30:49.048Z,33.97
2019-01-26T10:33:21.225Z,28.33
2019-01-26T10:36:03.906Z,28.20
2019-01-26T10:38:33.984Z,29.00
2019-01-26T10:41:04.046Z,24.67
2019-01-26T10:43:52.075Z,30.97
2019-01-26T10:46:20.537Z,29.97
2019-01-26T10:48:49.030Z,28.80
2019-01-26T10:51:17.631Z,27.10
2019-01-26T10:53:46.092Z,25.90
2019-01-26T10:56:14.532Z,25.83
2019-01-26T10:58:43.032Z,21.50
2019-01-26T11:01:11.434Z,24.13
2019-01-26T11:03:39.861Z,22.53
2019-01-26T11:06:08.269Z,30.67
2019-01-26T11:08:37.622Z,28.30
2019-01-26T11:11:06.013Z,34.37
2019-01-26T11:13:34.523Z,41.30
2019-01-26T11:16:02.955Z,38.87
2019-01-26T11:18:31.368Z,39.80
2019-01-26T11:20:59.857Z,43.10
2019-01-26T11:23:28.332Z,37.53
2019-01-26T11:25:56.760Z,42.23
2019-01-26T11:28:25.308Z,29.33
2019-01-26T11:30:53.803Z,28.77
2019-01-26T11:33:22.262Z,26.33
2019-01-26T11:35:50.771Z,24.17
2019-01-26T11:38:19.225Z,25.07
2019-01-26T11:40:47.670Z,28.40
2019-01-26T11:43:16.122Z,18.57
2019-01-26T11:45:54.600Z,21.73
2019-01-26T11:48:24.720Z,17.40
2019-01-26T11:50:57.254Z,22.73
2019-01-26T11:53:25.651Z,15.00
2019-01-26T11:55:58.359Z,18.47
2019-01-26T11:58:38.197Z,19.40
2019-01-26T12:01:24.428Z,21.13
2019-01-26T12:04:00.077Z,20.97
2019-01-26T12:06:30.195Z,12.83
2019-01-26T12:08:58.678Z,16.17
2019-01-26T12:11:27.401Z,15.40
2019-01-26T12:13:56.077Z,18.60
2019-01-26T12:16:27.000Z,14.87
2019-01-26T12:18:54.687Z,16.80
2019-01-26T12:21:23.083Z,13.00
2019-01-26T12:23:51.473Z,18.53
2019-01-26T12:26:23.099Z,13.60
2019-01-26T12:28:51.711Z,12.07
2019-01-26T12:31:20.106Z,8.83
2019-01-26T12:33:48.487Z,10.23
2019-01-26T12:36:16.952Z,7.93
2019-01-26T12:38:45.464Z,5.60
2019-01-26T12:41:13.839Z,8.90
2019-01-26T12:43:42.290Z,3.50
2019-01-26T12:46:10.839Z,3.13
2019-01-26T12:48:39.253Z,15.30
2019-01-26T12:51:07.662Z,5.43
2019-01-26T12:53:36.127Z,4.53
2019-01-26T12:56:05.191Z,4.13
2019-01-26T12:58:35.291Z,5.70
2019-01-26T13:01:03.685Z,3.13
2019-01-26T13:03:32.065Z,5.90
2019-01-26T13:06:00.585Z,7.53
2019-01-26T13:08:29.060Z,6.50
2019-01-26T13:11:00.738Z,10.23
2019-01-26T13:13:29.171Z,11.87
2019-01-26T13:15:57.538Z,8.63
2019-01-26T13:18:25.984Z,6.73
2019-01-26T13:20:54.441Z,6.17
2019-01-26T13:23:22.818Z,6.67
2019-01-26T13:25:51.270Z,4.03
2019-01-26T13:28:21.883Z,8.67
2019-01-26T13:30:51.561Z,6.27
2019-01-26T13:33:19.899Z,5.78
2019-01-26T13:35:48.418Z,7.33
2019-01-26T13:38:17.217Z,4.77
2019-01-26T13:40:51.828Z,5.13
2019-01-26T13:43:20.268Z,5.23
2019-01-26T13:45:48.772Z,3.57
2019-01-26T13:48:17.227Z,3.70
2019-01-26T13:50:45.900Z,5.10
2019-01-26T13:53:14.413Z,5.23
2019-01-26T13:55:42.793Z,3.57
2019-01-26T13:58:14.262Z,5.50
2019-01-26T14:00:42.763Z,3.40
2019-01-26T14:03:13.975Z,6.10
2019-01-26T14:05:49.725Z,6.73
2019-01-26T14:08:29.779Z,3.17
2019-01-26T14:11:11.541Z,7.93
2019-01-26T14:13:58.230Z,2.77
2019-01-26T14:16:26.567Z,5.90
2019-01-26T14:19:19.163Z,5.13
2019-01-26T14:22:01.102Z,5.73
2019-01-26T14:24:38.406Z,9.33
2019-01-26T14:27:10.105Z,8.87
2019-01-26T14:29:44.985Z,10.63
2019-01-26T14:32:13.319Z,7.80
2019-01-26T14:34:43.824Z,8.40
2019-01-26T14:37:13.885Z,5.87
2019-01-26T14:39:46.329Z,6.67
2019-01-26T14:42:14.991Z,6.23
2019-01-26T14:44:43.445Z,5.30
2019-01-26T14:47:11.982Z,3.17
2019-01-26T14:49:40.405Z,6.33
2019-01-26T14:52:08.889Z,4.90
2019-01-26T14:54:37.278Z,9.23
2019-01-26T14:57:05.634Z,4.87
2019-01-26T14:59:34.173Z,4.97
2019-01-26T15:05:24.623Z,4.27
2019-01-26T15:10:49.937Z,6.77
2019-01-26T15:13:24.197Z,4.87
2019-01-26T15:15:52.723Z,8.77
2019-01-26T15:18:24.219Z,4.13
2019-01-26T15:21:01.466Z,5.70
2019-01-26T15:23:30.309Z,6.93
2019-01-26T15:25:59.739Z,9.40
2019-01-26T15:28:29.777Z,8.47
2019-01-26T15:30:58.414Z,13.57
2019-01-26T15:33:26.899Z,13.17
2019-01-26T15:35:55.367Z,17.80
2019-01-26T15:38:23.787Z,20.30
2019-01-26T15:40:53.547Z,20.90
2019-01-26T15:43:22.033Z,30.30
2019-01-26T15:45:50.716Z,27.30
2019-01-26T15:48:19.313Z,24.07
2019-01-26T15:50:47.889Z,25.23
2019-01-26T15:53:16.371Z,23.13
2019-01-26T15:55:48.296Z,24.13
2019-01-26T15:58:16.961Z,25.77
2019-01-26T16:00:45.707Z,25.73
2019-01-26T16:03:14.173Z,22.90
2019-01-26T16:05:42.569Z,26.83
2019-01-26T16:08:11.135Z,27.37
2019-01-26T16:10:39.632Z,28.17
2019-01-26T16:13:08.120Z,27.70
2019-01-26T16:15:38.479Z,25.50
2019-01-26T16:18:09.848Z,23.20
2019-01-26T16:20:38.341Z,26.47
2019-01-26T16:23:09.518Z,23.83
2019-01-26T16:25:37.063Z,23.37
2019-01-26T16:28:06.822Z,24.50
2019-01-26T16:30:35.317Z,25.17
2019-01-26T16:33:03.731Z,24.93
2019-01-26T16:35:32.313Z,26.93
2019-01-26T16:38:00.967Z,24.90
2019-01-26T16:40:31.624Z,24.50
2019-01-26T16:43:00.102Z,25.77
2019-01-26T16:45:33.850Z,24.83
2019-01-26T16:48:02.301Z,23.57
2019-01-26T16:50:47.240Z,21.93
2019-01-26T16:53:19.956Z,22.10
2019-01-26T16:55:48.739Z,24.57
2019-01-26T16:58:17.086Z,22.57
2019-01-26T17:00:46.532Z,21.50
2019-01-26T17:03:15.070Z,15.63
2019-01-26T17:05:43.572Z,17.67
2019-01-26T17:08:15.136Z,14.07
2019-01-26T17:10:44.207Z,15.10
2019-01-26T17:13:12.685Z,14.90
2019-01-26T17:15:41.154Z,14.73
2019-01-26T17:18:13.707Z,10.90
2019-01-26T17:20:41.898Z,12.43
2019-01-26T17:23:10.384Z,10.90
2019-01-26T17:25:38.878Z,9.03
2019-01-26T17:28:07.338Z,13.90
2019-01-26T17:30:38.525Z,11.30
2019-01-26T17:33:07.532Z,9.97
2019-01-26T17:35:36.294Z,7.07
2019-01-26T17:38:04.841Z,8.23
2019-01-26T17:40:33.240Z,8.27
2019-01-26T17:43:01.756Z,9.10
2019-01-26T17:45:30.138Z,10.30
2019-01-26T17:47:58.561Z,9.83
2019-01-26T17:50:28.090Z,8.50
2019-01-26T17:52:56.635Z,6.73
2019-01-26T17:55:25.501Z,9.43
2019-01-26T17:57:53.900Z,7.87
2019-01-26T18:00:29.388Z,7.87
2019-01-26T18:02:58.022Z,7.93
2019-01-26T18:05:26.608Z,8.17
2019-01-26T18:08:00.237Z,9.60
2019-01-26T18:10:28.707Z,11.23
2019-01-26T18:12:57.522Z,11.63
2019-01-26T18:15:27.571Z,10.07
2019-01-26T18:17:56.016Z,12.67
2019-01-26T18:20:29.091Z,9.57
2019-01-26T18:22:58.145Z,9.40
2019-01-26T18:25:30.874Z,8.60
2019-01-26T18:27:59.502Z,7.57
2019-01-26T18:30:29.521Z,8.97
2019-01-26T18:32:58.061Z,5.77
2019-01-26T18:35:28.398Z,8.50
2019-01-26T18:37:58.848Z,6.93
2019-01-26T18:40:28.259Z,7.80
2019-01-26T18:42:56.751Z,6.63
2019-01-26T18:45:30.495Z,5.63
2019-01-26T18:48:01.100Z,7.47
2019-01-26T18:50:34.359Z,6.67
2019-01-26T18:53:02.857Z,6.30
2019-01-26T18:55:31.478Z,8.23
2019-01-26T18:58:01.620Z,4.90
2019-01-26T19:00:37.526Z,6.63
2019-01-26T19:03:37.800Z,6.77
2019-01-26T19:06:09.248Z,4.97
2019-01-26T19:08:38.124Z,5.43
2019-01-26T19:11:14.119Z,5.13
2019-01-26T19:13:50.314Z,4.67
2019-01-26T19:16:18.857Z,7.67
2019-01-26T19:18:49.322Z,5.50
2019-01-26T19:21:19.194Z,4.13
2019-01-26T19:23:48.188Z,2.90
2019-01-26T19:26:16.864Z,4.37
2019-01-26T19:28:45.247Z,5.40
2019-01-26T19:31:13.828Z,4.93
2019-01-26T19:33:44.357Z,6.40
2019-01-26T19:36:14.984Z,7.23
2019-01-26T19:38:53.859Z,6.27
2019-01-26T19:41:25.737Z,5.20
2019-01-26T19:44:00.284Z,4.37
2019-01-26T19:46:35.810Z,4.60
2019-01-26T19:49:10.338Z,4.23
2019-01-26T19:51:41.856Z,4.10
2019-01-26T19:57:05.206Z,3.77
2019-01-26T19:59:36.436Z,2.97
2019-01-26T20:02:20.228Z,4.10
2019-01-26T20:04:48.808Z,4.40
2019-01-26T20:07:19.388Z,4.60
2019-01-26T20:12:47.050Z,4.03
2019-01-26T20:15:24.633Z,6.63
2019-01-26T20:20:35.449Z,4.27
2019-01-26T20:23:12.972Z,4.63
2019-01-26T20:25:42.514Z,5.47
2019-01-26T20:28:14.067Z,4.43
2019-01-26T20:33:35.134Z,6.63
2019-01-26T20:36:24.428Z,6.73
2019-01-26T20:38:50.726Z,5.73
2019-01-26T20:41:20.091Z,5.10
2019-01-26T20:43:55.048Z,4.63
2019-01-26T20:46:37.750Z,5.63
2019-01-26T20:49:18.326Z,4.83
2019-01-26T20:51:52.280Z,9.10
2019-01-26T20:54:23.724Z,5.72
2019-01-26T20:56:53.981Z,4.90
2019-01-26T20:59:28.054Z,5.33
2019-01-26T21:02:01.741Z,6.87
2019-01-26T21:04:41.402Z,4.07
2019-01-26T21:07:13.585Z,6.50
2019-01-26T21:09:43.970Z,3.53
2019-01-26T21:15:28.243Z,4.17
2019-01-26T21:17:47.256Z,3.57
2019-01-26T21:23:20.825Z,2.97
2019-01-26T21:25:54.286Z,3.87
2019-01-26T21:28:22.864Z,3.37
2019-01-26T21:30:51.454Z,3.47
2019-01-26T21:33:19.834Z,3.67
2019-01-26T21:35:48.394Z,3.13
2019-01-26T21:38:19.210Z,5.27
2019-01-26T21:40:47.730Z,3.70
2019-01-26T21:43:16.330Z,4.90
2019-01-26T21:45:44.946Z,4.73
2019-01-26T21:48:13.653Z,7.17
2019-01-26T21:50:44.718Z,2.90
2019-01-26T21:53:13.323Z,3.50
2019-01-26T21:55:42.146Z,3.73
2019-01-26T21:58:10.570Z,3.90
2019-01-26T22:00:39.036Z,3.07
2019-01-26T22:03:07.620Z,4.67
2019-01-26T22:05:36.024Z,5.17
2019-01-26T22:08:04.518Z,5.57
2019-01-26T22:10:33.125Z,4.43
2019-01-26T22:13:02.948Z,5.30
2019-01-26T22:15:31.814Z,7.30
2019-01-26T22:18:00.390Z,5.13
2019-01-26T22:20:29.112Z,5.20
2019-01-26T22:22:58.263Z,3.97
2019-01-26T22:25:26.738Z,3.93
2019-01-26T22:27:55.632Z,4.30
2019-01-26T22:30:26.892Z,3.83
2019-01-26T22:32:55.386Z,5.07
2019-01-26T22:35:23.826Z,5.70
2019-01-26T22:37:52.259Z,5.87
2019-01-26T22:40:23.933Z,9.33
2019-01-26T22:42:52.359Z,7.57
2019-01-26T22:45:20.818Z,4.33
2019-01-26T22:47:49.258Z,5.67
2019-01-26T22:50:20.026Z,4.27
2019-01-26T22:52:48.450Z,5.10
2019-01-26T22:55:19.123Z,4.13
2019-01-26T22:57:47.986Z,5.20
2019-01-26T23:00:51.446Z,4.20
2019-01-26T23:03:40.406Z,4.23
2019-01-26T23:06:24.002Z,2.57
2019-01-26T23:08:52.535Z,4.70
2019-01-26T23:11:41.826Z,5.27
2019-01-26T23:14:21.847Z,4.10
2019-01-26T23:17:27.886Z,5.87
2019-01-26T23:22:52.811Z,3.43
2019-01-26T23:25:30.222Z,4.87
2019-01-26T23:28:16.827Z,2.50
2019-01-26T23:31:13.861Z,3.47
2019-01-26T23:33:42.393Z,2.17
2019-01-26T23:36:10.961Z,3.43
2019-01-26T23:38:39.485Z,3.37
2019-01-26T23:41:08.043Z,3.60
2019-01-26T23:43:36.578Z,4.70
2019-01-26T23:46:05.239Z,3.60
2019-01-26T23:48:33.934Z,2.20
2019-01-26T23:51:02.567Z,7.30
2019-01-26T23:53:31.054Z,2.50
2019-01-26T23:55:59.510Z,4.53
2019-01-26T23:58:28.104Z,4.90
